sensor_id;sensor_type;location;lat;lon;timestamp;P1;durP1;ratioP1;P2;durP2;ratioP2
2019;SDS011;1014;51.960;8.542;2023-11-21T00:01:42;36.60;;;33.20;;
2019;SDS011;1014;51.960;8.542;2023-11-21T00:04:09;32.07;;;29.13;;
2019;SDS011;1014;51.960;8.542;2023-11-21T00:06:36;33.50;;;30.30;;
2019;SDS011;1014;51.960;8.542;2023-11-21T00:09:03;36.00;;;32.57;;
2019;SDS011;1014;51.960;8.542;2023-11-21T00:11:30;33.43;;;30.60;;
2019;SDS011;1014;51.960;8.542;2023-11-21T00:13:58;32.70;;;30.10;;
2019;SDS011;1014;51.960;8.542;2023-11-21T00:16:25;34.67;;;31.27;;
2019;SDS011;1014;51.960;8.542;2023-11-21T00:18:52;32.70;;;30.20;;
2019;SDS011;1014;51.960;8.542;2023-11-21T00:21:20;34.43;;;31.47;;
2019;SDS011;1014;51.960;8.542;2023-11-21T00:23:47;33.80;;;31.07;;
2019;SDS011;1014;51.960;8.542;2023-11-21T00:26:14;34.27;;;31.33;;
2019;SDS011;1014;51.960;8.542;2023-11-21T00:28:41;33.97;;;31.17;;
2019;SDS011;1014;51.960;8.542;2023-11-21T00:31:09;36.63;;;33.40;;
2019;SDS011;1014;51.960;8.542;2023-11-21T00:33:36;33.93;;;30.83;;
2019;SDS011;1014;51.960;8.542;2023-11-21T00:36:03;34.67;;;31.77;;
2019;SDS011;1014;51.960;8.542;2023-11-21T00:38:35;32.77;;;30.07;;
2019;SDS011;1014;51.960;8.542;2023-11-21T00:41:04;36.23;;;32.93;;
2019;SDS011;1014;51.960;8.542;2023-11-21T00:43:31;35.07;;;31.90;;
2019;SDS011;1014;51.960;8.542;2023-11-21T00:45:58;36.53;;;33.40;;
2019;SDS011;1014;51.960;8.542;2023-11-21T00:48:27;35.90;;;32.90;;
2019;SDS011;1014;51.960;8.542;2023-11-21T00:50:54;35.60;;;32.10;;
2019;SDS011;1014;51.960;8.542;2023-11-21T00:53:22;35.40;;;31.90;;
2019;SDS011;1014;51.960;8.542;2023-11-21T00:55:49;34.40;;;30.90;;
2019;SDS011;1014;51.960;8.542;2023-11-21T00:58:17;35.20;;;32.17;;
2019;SDS011;1014;51.960;8.542;2023-11-21T01:00:44;34.10;;;31.23;;
2019;SDS011;1014;51.960;8.542;2023-11-21T01:03:13;33.10;;;30.50;;
2019;SDS011;1014;51.960;8.542;2023-11-21T01:05:41;36.70;;;33.40;;
2019;SDS011;1014;51.960;8.542;2023-11-21T01:08:08;37.10;;;33.60;;
2019;SDS011;1014;51.960;8.542;2023-11-21T01:10:35;35.70;;;32.03;;
2019;SDS011;1014;51.960;8.542;2023-11-21T01:13:03;36.17;;;33.10;;
2019;SDS011;1014;51.960;8.542;2023-11-21T01:15:30;36.20;;;33.10;;
2019;SDS011;1014;51.960;8.542;2023-11-21T01:17:57;35.77;;;32.50;;
2019;SDS011;1014;51.960;8.542;2023-11-21T01:20:25;50.97;;;35.00;;
2019;SDS011;1014;51.960;8.542;2023-11-21T01:22:53;35.03;;;32.13;;
2019;SDS011;1014;51.960;8.542;2023-11-21T01:25:20;33.87;;;30.90;;
2019;SDS011;1014;51.960;8.542;2023-11-21T01:27:47;34.60;;;31.80;;
2019;SDS011;1014;51.960;8.542;2023-11-21T01:30:14;35.10;;;31.93;;
2019;SDS011;1014;51.960;8.542;2023-11-21T01:32:42;37.40;;;33.40;;
2019;SDS011;1014;51.960;8.542;2023-11-21T01:35:09;36.70;;;33.27;;
2019;SDS011;1014;51.960;8.542;2023-11-21T01:37:36;37.00;;;33.80;;
2019;SDS011;1014;51.960;8.542;2023-11-21T01:40:05;38.23;;;34.53;;
2019;SDS011;1014;51.960;8.542;2023-11-21T01:42:35;36.43;;;32.97;;
2019;SDS011;1014;51.960;8.542;2023-11-21T01:45:02;38.20;;;34.80;;
2019;SDS011;1014;51.960;8.542;2023-11-21T01:47:30;35.60;;;32.40;;
2019;SDS011;1014;51.960;8.542;2023-11-21T01:49:57;35.50;;;32.00;;
2019;SDS011;1014;51.960;8.542;2023-11-21T01:52:24;37.33;;;34.00;;
2019;SDS011;1014;51.960;8.542;2023-11-21T01:54:52;36.97;;;33.47;;
2019;SDS011;1014;51.960;8.542;2023-11-21T01:57:21;36.07;;;32.97;;
2019;SDS011;1014;51.960;8.542;2023-11-21T01:59:48;37.30;;;33.50;;
2019;SDS011;1014;51.960;8.542;2023-11-21T02:02:15;35.87;;;32.30;;
2019;SDS011;1014;51.960;8.542;2023-11-21T02:04:42;37.87;;;34.00;;
2019;SDS011;1014;51.960;8.542;2023-11-21T02:07:09;37.10;;;33.60;;
2019;SDS011;1014;51.960;8.542;2023-11-21T02:09:36;36.23;;;32.73;;
2019;SDS011;1014;51.960;8.542;2023-11-21T02:12:07;39.70;;;35.90;;
2019;SDS011;1014;51.960;8.542;2023-11-21T02:14:36;36.47;;;32.70;;
2019;SDS011;1014;51.960;8.542;2023-11-21T02:17:03;37.60;;;34.10;;
2019;SDS011;1014;51.960;8.542;2023-11-21T02:19:31;38.53;;;34.70;;
2019;SDS011;1014;51.960;8.542;2023-11-21T02:21:59;35.70;;;32.73;;
2019;SDS011;1014;51.960;8.542;2023-11-21T02:24:31;38.60;;;34.40;;
2019;SDS011;1014;51.960;8.542;2023-11-21T02:26:58;39.03;;;35.13;;
2019;SDS011;1014;51.960;8.542;2023-11-21T02:29:25;39.30;;;35.40;;
2019;SDS011;1014;51.960;8.542;2023-11-21T02:31:53;39.00;;;34.70;;
2019;SDS011;1014;51.960;8.542;2023-11-21T02:34:20;35.87;;;32.23;;
2019;SDS011;1014;51.960;8.542;2023-11-21T02:36:47;38.17;;;34.37;;
2019;SDS011;1014;51.960;8.542;2023-11-21T02:39:16;37.63;;;33.83;;
2019;SDS011;1014;51.960;8.542;2023-11-21T02:41:44;36.63;;;33.30;;
2019;SDS011;1014;51.960;8.542;2023-11-21T02:44:11;34.80;;;31.60;;
2019;SDS011;1014;51.960;8.542;2023-11-21T02:46:38;34.50;;;31.10;;
2019;SDS011;1014;51.960;8.542;2023-11-21T02:49:06;37.47;;;33.57;;
2019;SDS011;1014;51.960;8.542;2023-11-21T02:51:35;35.47;;;32.37;;
2019;SDS011;1014;51.960;8.542;2023-11-21T02:54:03;35.50;;;32.37;;
2019;SDS011;1014;51.960;8.542;2023-11-21T02:56:31;34.30;;;31.00;;
2019;SDS011;1014;51.960;8.542;2023-11-21T02:59:00;38.17;;;34.17;;
2019;SDS011;1014;51.960;8.542;2023-11-21T03:01:27;35.90;;;32.40;;
2019;SDS011;1014;51.960;8.542;2023-11-21T03:03:54;36.00;;;32.40;;
2019;SDS011;1014;51.960;8.542;2023-11-21T03:06:22;40.40;;;35.10;;
2019;SDS011;1014;51.960;8.542;2023-11-21T03:08:49;35.57;;;32.17;;
2019;SDS011;1014;51.960;8.542;2023-11-21T03:11:16;35.63;;;32.40;;
2019;SDS011;1014;51.960;8.542;2023-11-21T03:13:43;38.83;;;34.67;;
2019;SDS011;1014;51.960;8.542;2023-11-21T03:16:12;39.07;;;33.03;;
2019;SDS011;1014;51.960;8.542;2023-11-21T03:18:39;38.97;;;33.70;;
2019;SDS011;1014;51.960;8.542;2023-11-21T03:21:06;36.67;;;32.90;;
2019;SDS011;1014;51.960;8.542;2023-11-21T03:23:34;37.60;;;33.90;;
2019;SDS011;1014;51.960;8.542;2023-11-21T03:26:01;37.30;;;33.83;;
2019;SDS011;1014;51.960;8.542;2023-11-21T03:28:28;39.43;;;32.07;;
2019;SDS011;1014;51.960;8.542;2023-11-21T03:30:56;38.37;;;34.73;;
2019;SDS011;1014;51.960;8.542;2023-11-21T03:33:24;39.00;;;34.80;;
2019;SDS011;1014;51.960;8.542;2023-11-21T03:35:51;37.40;;;33.03;;
2019;SDS011;1014;51.960;8.542;2023-11-21T03:38:18;38.63;;;34.73;;
2019;SDS011;1014;51.960;8.542;2023-11-21T03:40:46;35.77;;;32.07;;
2019;SDS011;1014;51.960;8.542;2023-11-21T03:43:13;35.40;;;32.20;;
2019;SDS011;1014;51.960;8.542;2023-11-21T03:45:40;35.90;;;32.30;;
2019;SDS011;1014;51.960;8.542;2023-11-21T03:48:07;35.77;;;32.17;;
2019;SDS011;1014;51.960;8.542;2023-11-21T03:50:35;35.87;;;31.63;;
2019;SDS011;1014;51.960;8.542;2023-11-21T03:53:02;34.90;;;31.20;;
2019;SDS011;1014;51.960;8.542;2023-11-21T03:55:29;35.30;;;31.57;;
2019;SDS011;1014;51.960;8.542;2023-11-21T03:57:57;35.53;;;32.23;;
2019;SDS011;1014;51.960;8.542;2023-11-21T04:00:24;35.37;;;31.60;;
2019;SDS011;1014;51.960;8.542;2023-11-21T04:02:52;35.00;;;31.70;;
2019;SDS011;1014;51.960;8.542;2023-11-21T04:05:19;35.47;;;32.30;;
2019;SDS011;1014;51.960;8.542;2023-11-21T04:07:48;34.70;;;31.20;;
2019;SDS011;1014;51.960;8.542;2023-11-21T04:10:16;34.37;;;31.07;;
2019;SDS011;1014;51.960;8.542;2023-11-21T04:12:43;35.93;;;32.30;;
2019;SDS011;1014;51.960;8.542;2023-11-21T04:15:10;34.00;;;30.80;;
2019;SDS011;1014;51.960;8.542;2023-11-21T04:17:38;33.27;;;30.17;;
2019;SDS011;1014;51.960;8.542;2023-11-21T04:20:06;34.57;;;31.13;;
2019;SDS011;1014;51.960;8.542;2023-11-21T04:22:35;35.53;;;32.30;;
2019;SDS011;1014;51.960;8.542;2023-11-21T04:25:05;35.90;;;32.43;;
2019;SDS011;1014;51.960;8.542;2023-11-21T04:27:32;35.73;;;32.10;;
2019;SDS011;1014;51.960;8.542;2023-11-21T04:29:59;34.63;;;31.13;;
2019;SDS011;1014;51.960;8.542;2023-11-21T04:32:26;36.00;;;32.57;;
2019;SDS011;1014;51.960;8.542;2023-11-21T04:34:53;36.67;;;33.13;;
2019;SDS011;1014;51.960;8.542;2023-11-21T04:37:20;36.77;;;32.97;;
2019;SDS011;1014;51.960;8.542;2023-11-21T04:39:47;36.93;;;33.33;;
2019;SDS011;1014;51.960;8.542;2023-11-21T04:42:16;35.23;;;32.27;;
2019;SDS011;1014;51.960;8.542;2023-11-21T04:44:43;36.60;;;31.80;;
2019;SDS011;1014;51.960;8.542;2023-11-21T04:47:10;40.53;;;36.53;;
2019;SDS011;1014;51.960;8.542;2023-11-21T04:49:37;40.03;;;36.07;;
2019;SDS011;1014;51.960;8.542;2023-11-21T04:52:04;37.53;;;33.70;;
2019;SDS011;1014;51.960;8.542;2023-11-21T04:54:32;38.93;;;34.97;;
2019;SDS011;1014;51.960;8.542;2023-11-21T04:57:00;39.80;;;36.13;;
2019;SDS011;1014;51.960;8.542;2023-11-21T04:59:29;38.67;;;34.87;;
2019;SDS011;1014;51.960;8.542;2023-11-21T05:01:56;36.77;;;33.40;;
2019;SDS011;1014;51.960;8.542;2023-11-21T05:04:25;38.97;;;34.97;;
2019;SDS011;1014;51.960;8.542;2023-11-21T05:06:52;82.67;;;73.53;;
2019;SDS011;1014;51.960;8.542;2023-11-21T05:09:19;47.20;;;42.40;;
2019;SDS011;1014;51.960;8.542;2023-11-21T05:11:47;39.23;;;35.07;;
2019;SDS011;1014;51.960;8.542;2023-11-21T05:14:14;50.67;;;45.90;;
2019;SDS011;1014;51.960;8.542;2023-11-21T05:16:43;52.33;;;47.13;;
2019;SDS011;1014;51.960;8.542;2023-11-21T05:19:10;40.90;;;36.80;;
2019;SDS011;1014;51.960;8.542;2023-11-21T05:21:38;41.23;;;36.87;;
2019;SDS011;1014;51.960;8.542;2023-11-21T05:24:05;42.27;;;38.30;;
2019;SDS011;1014;51.960;8.542;2023-11-21T05:26:32;40.77;;;36.87;;
2019;SDS011;1014;51.960;8.542;2023-11-21T05:28:59;41.93;;;37.40;;
2019;SDS011;1014;51.960;8.542;2023-11-21T05:31:26;42.63;;;38.47;;
2019;SDS011;1014;51.960;8.542;2023-11-21T05:33:54;42.77;;;38.17;;
2019;SDS011;1014;51.960;8.542;2023-11-21T05:36:22;41.93;;;37.90;;
2019;SDS011;1014;51.960;8.542;2023-11-21T05:38:49;42.00;;;37.60;;
2019;SDS011;1014;51.960;8.542;2023-11-21T05:41:16;44.90;;;38.03;;
2019;SDS011;1014;51.960;8.542;2023-11-21T05:43:43;42.13;;;38.07;;
2019;SDS011;1014;51.960;8.542;2023-11-21T05:46:10;44.27;;;39.40;;
2019;SDS011;1014;51.960;8.542;2023-11-21T05:48:38;44.03;;;39.43;;
2019;SDS011;1014;51.960;8.542;2023-11-21T05:51:07;40.23;;;36.63;;
2019;SDS011;1014;51.960;8.542;2023-11-21T05:53:34;47.90;;;39.73;;
2019;SDS011;1014;51.960;8.542;2023-11-21T05:56:01;41.70;;;37.30;;
2019;SDS011;1014;51.960;8.542;2023-11-21T05:58:29;43.13;;;39.13;;
2019;SDS011;1014;51.960;8.542;2023-11-21T06:00:56;42.90;;;37.67;;
2019;SDS011;1014;51.960;8.542;2023-11-21T06:03:23;40.83;;;36.90;;
2019;SDS011;1014;51.960;8.542;2023-11-21T06:05:50;41.70;;;37.67;;
2019;SDS011;1014;51.960;8.542;2023-11-21T06:08:18;44.30;;;39.60;;
2019;SDS011;1014;51.960;8.542;2023-11-21T06:10:45;43.70;;;37.93;;
2019;SDS011;1014;51.960;8.542;2023-11-21T06:13:14;42.80;;;38.50;;
2019;SDS011;1014;51.960;8.542;2023-11-21T06:15:41;45.97;;;41.20;;
2019;SDS011;1014;51.960;8.542;2023-11-21T06:18:08;42.90;;;38.83;;
2019;SDS011;1014;51.960;8.542;2023-11-21T06:20:36;45.33;;;40.47;;
2019;SDS011;1014;51.960;8.542;2023-11-21T06:23:03;42.00;;;38.30;;
2019;SDS011;1014;51.960;8.542;2023-11-21T06:25:32;43.70;;;39.20;;
2019;SDS011;1014;51.960;8.542;2023-11-21T06:28:01;43.70;;;39.30;;
2019;SDS011;1014;51.960;8.542;2023-11-21T06:30:28;42.63;;;38.10;;
2019;SDS011;1014;51.960;8.542;2023-11-21T06:32:55;41.23;;;37.17;;
2019;SDS011;1014;51.960;8.542;2023-11-21T06:35:22;43.90;;;39.77;;
2019;SDS011;1014;51.960;8.542;2023-11-21T06:37:49;43.90;;;39.60;;
2019;SDS011;1014;51.960;8.542;2023-11-21T06:40:17;43.10;;;39.03;;
2019;SDS011;1014;51.960;8.542;2023-11-21T06:42:45;43.50;;;39.40;;
2019;SDS011;1014;51.960;8.542;2023-11-21T06:45:12;46.60;;;41.70;;
2019;SDS011;1014;51.960;8.542;2023-11-21T06:47:40;43.37;;;39.20;;
2019;SDS011;1014;51.960;8.542;2023-11-21T06:50:07;44.83;;;40.23;;
2019;SDS011;1014;51.960;8.542;2023-11-21T06:52:34;44.50;;;39.70;;
2019;SDS011;1014;51.960;8.542;2023-11-21T06:55:01;44.20;;;39.40;;
2019;SDS011;1014;51.960;8.542;2023-11-21T06:57:29;44.77;;;40.43;;
2019;SDS011;1014;51.960;8.542;2023-11-21T06:59:58;44.57;;;40.07;;
2019;SDS011;1014;51.960;8.542;2023-11-21T07:02:25;45.10;;;38.87;;
2019;SDS011;1014;51.960;8.542;2023-11-21T07:04:53;44.00;;;39.93;;
2019;SDS011;1014;51.960;8.542;2023-11-21T07:07:20;46.23;;;41.10;;
2019;SDS011;1014;51.960;8.542;2023-11-21T07:09:47;41.97;;;37.67;;
2019;SDS011;1014;51.960;8.542;2023-11-21T07:12:14;44.10;;;39.60;;
2019;SDS011;1014;51.960;8.542;2023-11-21T07:14:41;44.27;;;39.63;;
2019;SDS011;1014;51.960;8.542;2023-11-21T07:17:11;45.93;;;40.90;;
2019;SDS011;1014;51.960;8.542;2023-11-21T07:19:38;46.83;;;42.07;;
2019;SDS011;1014;51.960;8.542;2023-11-21T07:22:06;50.77;;;42.20;;
2019;SDS011;1014;51.960;8.542;2023-11-21T07:24:33;46.47;;;41.27;;
2019;SDS011;1014;51.960;8.542;2023-11-21T07:27:01;47.40;;;42.33;;
2019;SDS011;1014;51.960;8.542;2023-11-21T07:29:29;44.33;;;39.73;;
2019;SDS011;1014;51.960;8.542;2023-11-21T07:31:56;49.70;;;44.27;;
2019;SDS011;1014;51.960;8.542;2023-11-21T07:34:24;48.80;;;43.90;;
2019;SDS011;1014;51.960;8.542;2023-11-21T07:36:51;47.70;;;42.90;;
2019;SDS011;1014;51.960;8.542;2023-11-21T07:39:19;45.33;;;40.50;;
2019;SDS011;1014;51.960;8.542;2023-11-21T07:41:46;44.83;;;40.23;;
2019;SDS011;1014;51.960;8.542;2023-11-21T07:44:15;45.53;;;40.80;;
2019;SDS011;1014;51.960;8.542;2023-11-21T07:46:42;46.60;;;41.77;;
2019;SDS011;1014;51.960;8.542;2023-11-21T07:49:10;49.77;;;42.60;;
2019;SDS011;1014;51.960;8.542;2023-11-21T07:51:41;45.87;;;41.27;;
2019;SDS011;1014;51.960;8.542;2023-11-21T07:54:08;48.47;;;43.20;;
2019;SDS011;1014;51.960;8.542;2023-11-21T07:56:36;50.07;;;44.60;;
2019;SDS011;1014;51.960;8.542;2023-11-21T07:59:03;49.67;;;44.30;;
2019;SDS011;1014;51.960;8.542;2023-11-21T08:01:30;53.60;;;43.80;;
2019;SDS011;1014;51.960;8.542;2023-11-21T08:03:58;53.73;;;45.67;;
2019;SDS011;1014;51.960;8.542;2023-11-21T08:06:28;50.90;;;45.40;;
2019;SDS011;1014;51.960;8.542;2023-11-21T08:08:57;56.00;;;45.23;;
2019;SDS011;1014;51.960;8.542;2023-11-21T08:11:24;50.67;;;43.53;;
2019;SDS011;1014;51.960;8.542;2023-11-21T08:13:54;51.73;;;46.33;;
2019;SDS011;1014;51.960;8.542;2023-11-21T08:16:21;58.37;;;46.97;;
2019;SDS011;1014;51.960;8.542;2023-11-21T08:18:49;51.00;;;45.47;;
2019;SDS011;1014;51.960;8.542;2023-11-21T08:21:16;56.10;;;45.03;;
2019;SDS011;1014;51.960;8.542;2023-11-21T08:23:44;55.77;;;45.07;;
2019;SDS011;1014;51.960;8.542;2023-11-21T08:26:12;59.23;;;47.00;;
2019;SDS011;1014;51.960;8.542;2023-11-21T08:28:43;52.30;;;46.50;;
2019;SDS011;1014;51.960;8.542;2023-11-21T08:31:10;71.87;;;49.70;;
2019;SDS011;1014;51.960;8.542;2023-11-21T08:33:37;61.17;;;47.50;;
2019;SDS011;1014;51.960;8.542;2023-11-21T08:36:06;58.10;;;46.47;;
2019;SDS011;1014;51.960;8.542;2023-11-21T08:38:33;63.47;;;48.70;;
2019;SDS011;1014;51.960;8.542;2023-11-21T08:41:02;61.13;;;49.70;;
2019;SDS011;1014;51.960;8.542;2023-11-21T08:43:31;57.37;;;47.50;;
2019;SDS011;1014;51.960;8.542;2023-11-21T08:45:59;58.87;;;48.10;;
2019;SDS011;1014;51.960;8.542;2023-11-21T08:48:26;55.10;;;47.03;;
2019;SDS011;1014;51.960;8.542;2023-11-21T08:50:54;53.67;;;46.17;;
2019;SDS011;1014;51.960;8.542;2023-11-21T08:53:22;49.70;;;43.87;;
2019;SDS011;1014;51.960;8.542;2023-11-21T08:55:51;58.90;;;46.10;;
2019;SDS011;1014;51.960;8.542;2023-11-21T08:58:19;53.13;;;45.27;;
2019;SDS011;1014;51.960;8.542;2023-11-21T09:00:47;55.60;;;46.23;;
2019;SDS011;1014;51.960;8.542;2023-11-21T09:03:14;50.87;;;42.13;;
2019;SDS011;1014;51.960;8.542;2023-11-21T09:05:42;62.40;;;43.50;;
2019;SDS011;1014;51.960;8.542;2023-11-21T09:08:09;60.93;;;47.20;;
2019;SDS011;1014;51.960;8.542;2023-11-21T09:10:37;64.13;;;46.03;;
2019;SDS011;1014;51.960;8.542;2023-11-21T09:13:04;56.13;;;44.23;;
2019;SDS011;1014;51.960;8.542;2023-11-21T09:15:35;54.53;;;44.73;;
2019;SDS011;1014;51.960;8.542;2023-11-21T09:18:03;55.57;;;44.80;;
2019;SDS011;1014;51.960;8.542;2023-11-21T09:20:31;56.53;;;41.23;;
2019;SDS011;1014;51.960;8.542;2023-11-21T09:22:58;49.33;;;39.30;;
2019;SDS011;1014;51.960;8.542;2023-11-21T09:25:25;39.50;;;35.33;;
2019;SDS011;1014;51.960;8.542;2023-11-21T09:27:53;54.23;;;37.27;;
2019;SDS011;1014;51.960;8.542;2023-11-21T09:30:21;42.00;;;34.30;;
2019;SDS011;1014;51.960;8.542;2023-11-21T09:32:49;37.17;;;33.07;;
2019;SDS011;1014;51.960;8.542;2023-11-21T09:35:18;36.63;;;32.87;;
2019;SDS011;1014;51.960;8.542;2023-11-21T09:37:45;35.87;;;32.27;;
2019;SDS011;1014;51.960;8.542;2023-11-21T09:40:12;35.50;;;31.63;;
2019;SDS011;1014;51.960;8.542;2023-11-21T09:42:43;36.27;;;32.07;;
2019;SDS011;1014;51.960;8.542;2023-11-21T09:45:17;35.53;;;32.33;;
2019;SDS011;1014;51.960;8.542;2023-11-21T09:47:45;33.33;;;30.60;;
2019;SDS011;1014;51.960;8.542;2023-11-21T09:50:14;32.40;;;29.50;;
2019;SDS011;1014;51.960;8.542;2023-11-21T09:52:47;34.03;;;30.70;;
2019;SDS011;1014;51.960;8.542;2023-11-21T09:55:16;34.47;;;31.67;;
2019;SDS011;1014;51.960;8.542;2023-11-21T09:57:46;34.00;;;31.17;;
2019;SDS011;1014;51.960;8.542;2023-11-21T10:00:15;32.67;;;30.17;;
2019;SDS011;1014;51.960;8.542;2023-11-21T10:02:45;32.50;;;29.70;;
2019;SDS011;1014;51.960;8.542;2023-11-21T10:05:14;35.57;;;32.43;;
2019;SDS011;1014;51.960;8.542;2023-11-21T10:07:43;32.57;;;29.83;;
2019;SDS011;1014;51.960;8.542;2023-11-21T10:10:13;32.30;;;29.43;;
2019;SDS011;1014;51.960;8.542;2023-11-21T10:12:40;29.93;;;27.33;;
2019;SDS011;1014;51.960;8.542;2023-11-21T10:15:09;30.07;;;27.87;;
2019;SDS011;1014;51.960;8.542;2023-11-21T10:17:41;28.80;;;26.80;;
2019;SDS011;1014;51.960;8.542;2023-11-21T10:20:10;29.87;;;27.43;;
2019;SDS011;1014;51.960;8.542;2023-11-21T10:22:38;30.50;;;27.80;;
2019;SDS011;1014;51.960;8.542;2023-11-21T10:25:06;29.00;;;26.50;;
2019;SDS011;1014;51.960;8.542;2023-11-21T10:27:35;28.33;;;26.03;;
2019;SDS011;1014;51.960;8.542;2023-11-21T10:30:04;25.40;;;23.83;;
2019;SDS011;1014;51.960;8.542;2023-11-21T10:32:32;25.50;;;23.83;;
2019;SDS011;1014;51.960;8.542;2023-11-21T10:34:59;25.00;;;23.40;;
2019;SDS011;1014;51.960;8.542;2023-11-21T10:37:31;27.83;;;25.50;;
2019;SDS011;1014;51.960;8.542;2023-11-21T10:39:58;28.20;;;25.90;;
2019;SDS011;1014;51.960;8.542;2023-11-21T10:42:26;27.17;;;25.37;;
2019;SDS011;1014;51.960;8.542;2023-11-21T10:44:54;27.00;;;25.10;;
2019;SDS011;1014;51.960;8.542;2023-11-21T10:47:21;25.63;;;24.13;;
2019;SDS011;1014;51.960;8.542;2023-11-21T10:49:49;24.97;;;23.40;;
2019;SDS011;1014;51.960;8.542;2023-11-21T10:52:18;25.57;;;23.93;;
2019;SDS011;1014;51.960;8.542;2023-11-21T10:54:45;22.87;;;21.57;;
2019;SDS011;1014;51.960;8.542;2023-11-21T10:57:13;24.40;;;22.77;;
2019;SDS011;1014;51.960;8.542;2023-11-21T10:59:43;24.30;;;22.63;;
2019;SDS011;1014;51.960;8.542;2023-11-21T11:02:16;25.63;;;23.80;;
2019;SDS011;1014;51.960;8.542;2023-11-21T11:04:47;25.57;;;23.67;;
2019;SDS011;1014;51.960;8.542;2023-11-21T11:07:15;23.87;;;22.47;;
2019;SDS011;1014;51.960;8.542;2023-11-21T11:09:42;25.23;;;23.10;;
2019;SDS011;1014;51.960;8.542;2023-11-21T11:12:11;24.63;;;22.77;;
2019;SDS011;1014;51.960;8.542;2023-11-21T11:14:40;25.53;;;23.87;;
2019;SDS011;1014;51.960;8.542;2023-11-21T11:17:08;25.87;;;24.27;;
2019;SDS011;1014;51.960;8.542;2023-11-21T11:19:38;25.97;;;24.03;;
2019;SDS011;1014;51.960;8.542;2023-11-21T11:22:08;24.07;;;22.67;;
2019;SDS011;1014;51.960;8.542;2023-11-21T11:24:44;26.00;;;24.40;;
2019;SDS011;1014;51.960;8.542;2023-11-21T11:27:18;23.70;;;22.30;;
2019;SDS011;1014;51.960;8.542;2023-11-21T11:29:49;24.67;;;23.07;;
2019;SDS011;1014;51.960;8.542;2023-11-21T11:32:21;23.80;;;22.30;;
2019;SDS011;1014;51.960;8.542;2023-11-21T11:34:56;22.40;;;21.20;;
2019;SDS011;1014;51.960;8.542;2023-11-21T11:37:26;23.00;;;21.67;;
2019;SDS011;1014;51.960;8.542;2023-11-21T11:39:53;23.43;;;22.10;;
2019;SDS011;1014;51.960;8.542;2023-11-21T11:42:22;24.33;;;22.83;;
2019;SDS011;1014;51.960;8.542;2023-11-21T11:44:50;24.53;;;22.93;;
2019;SDS011;1014;51.960;8.542;2023-11-21T11:47:20;24.50;;;22.90;;
2019;SDS011;1014;51.960;8.542;2023-11-21T11:49:59;24.80;;;23.20;;
2019;SDS011;1014;51.960;8.542;2023-11-21T11:52:39;26.37;;;24.67;;
2019;SDS011;1014;51.960;8.542;2023-11-21T11:55:07;27.10;;;25.03;;
2019;SDS011;1014;51.960;8.542;2023-11-21T11:57:38;24.33;;;22.70;;
2019;SDS011;1014;51.960;8.542;2023-11-21T12:00:12;24.27;;;22.67;;
2019;SDS011;1014;51.960;8.542;2023-11-21T12:02:44;24.10;;;22.50;;
2019;SDS011;1014;51.960;8.542;2023-11-21T12:05:14;25.17;;;23.43;;
2019;SDS011;1014;51.960;8.542;2023-11-21T12:07:43;24.33;;;22.67;;
2019;SDS011;1014;51.960;8.542;2023-11-21T12:10:12;25.20;;;23.30;;
2019;SDS011;1014;51.960;8.542;2023-11-21T12:12:42;25.17;;;23.40;;
2019;SDS011;1014;51.960;8.542;2023-11-21T12:15:10;24.53;;;22.83;;
2019;SDS011;1014;51.960;8.542;2023-11-21T12:38:53;25.57;;;23.67;;
2019;SDS011;1014;51.960;8.542;2023-11-21T12:41:20;25.33;;;23.33;;
2019;SDS011;1014;51.960;8.542;2023-11-21T12:43:47;25.30;;;23.50;;
2019;SDS011;1014;51.960;8.542;2023-11-21T12:46:14;26.10;;;24.20;;
2019;SDS011;1014;51.960;8.542;2023-11-21T12:48:42;25.53;;;23.50;;
2019;SDS011;1014;51.960;8.542;2023-11-21T12:51:11;26.33;;;24.43;;
2019;SDS011;1014;51.960;8.542;2023-11-21T12:53:39;26.17;;;24.20;;
2019;SDS011;1014;51.960;8.542;2023-11-21T12:56:09;26.13;;;24.10;;
2019;SDS011;1014;51.960;8.542;2023-11-21T12:58:36;25.37;;;23.47;;
2019;SDS011;1014;51.960;8.542;2023-11-21T13:01:05;27.80;;;25.50;;
2019;SDS011;1014;51.960;8.542;2023-11-21T13:03:37;28.37;;;26.07;;
2019;SDS011;1014;51.960;8.542;2023-11-21T13:06:05;27.83;;;25.83;;
2019;SDS011;1014;51.960;8.542;2023-11-21T13:08:33;27.25;;;25.25;;
2019;SDS011;1014;51.960;8.542;2023-11-21T13:11:00;26.77;;;24.57;;
2019;SDS011;1014;51.960;8.542;2023-11-21T13:13:29;26.43;;;24.37;;
2019;SDS011;1014;51.960;8.542;2023-11-21T13:15:57;29.53;;;26.90;;
2019;SDS011;1014;51.960;8.542;2023-11-21T13:18:26;27.43;;;25.00;;
2019;SDS011;1014;51.960;8.542;2023-11-21T13:20:53;24.27;;;22.40;;
2019;SDS011;1014;51.960;8.542;2023-11-21T13:23:22;26.75;;;24.67;;
2019;SDS011;1014;51.960;8.542;2023-11-21T13:25:49;27.35;;;25.08;;
2019;SDS011;1014;51.960;8.542;2023-11-21T13:28:16;26.00;;;24.10;;
2019;SDS011;1014;51.960;8.542;2023-11-21T13:30:47;25.30;;;23.45;;
2019;SDS011;1014;51.960;8.542;2023-11-21T13:33:17;25.10;;;23.30;;
2019;SDS011;1014;51.960;8.542;2023-11-21T13:35:46;25.80;;;23.80;;
2019;SDS011;1014;51.960;8.542;2023-11-21T13:38:16;24.98;;;23.08;;
2019;SDS011;1014;51.960;8.542;2023-11-21T13:40:48;24.08;;;22.48;;
2019;SDS011;1014;51.960;8.542;2023-11-21T13:43:18;23.47;;;21.70;;
2019;SDS011;1014;51.960;8.542;2023-11-21T13:45:48;23.83;;;22.23;;
2019;SDS011;1014;51.960;8.542;2023-11-21T13:48:19;25.87;;;23.90;;
2019;SDS011;1014;51.960;8.542;2023-11-21T13:50:53;22.30;;;20.80;;
2019;SDS011;1014;51.960;8.542;2023-11-21T13:53:23;20.97;;;19.63;;
2019;SDS011;1014;51.960;8.542;2023-11-21T13:55:51;22.50;;;21.00;;
2019;SDS011;1014;51.960;8.542;2023-11-21T13:58:19;22.07;;;20.57;;
2019;SDS011;1014;51.960;8.542;2023-11-21T14:01:01;22.00;;;20.60;;
2019;SDS011;1014;51.960;8.542;2023-11-21T14:03:31;24.17;;;22.37;;
2019;SDS011;1014;51.960;8.542;2023-11-21T14:06:04;23.52;;;21.70;;
2019;SDS011;1014;51.960;8.542;2023-11-21T14:35:27;25.67;;;23.98;;
2019;SDS011;1014;51.960;8.542;2023-11-21T14:37:55;25.43;;;23.63;;
2019;SDS011;1014;51.960;8.542;2023-11-21T14:40:23;24.50;;;22.77;;
2019;SDS011;1014;51.960;8.542;2023-11-21T14:42:50;26.83;;;24.83;;
2019;SDS011;1014;51.960;8.542;2023-11-21T14:45:19;23.45;;;21.63;;
2019;SDS011;1014;51.960;8.542;2023-11-21T14:47:48;24.77;;;22.75;;
2019;SDS011;1014;51.960;8.542;2023-11-21T14:50:23;24.70;;;22.80;;
2019;SDS011;1014;51.960;8.542;2023-11-21T14:53:10;23.93;;;22.33;;
2019;SDS011;1014;51.960;8.542;2023-11-21T14:55:37;24.73;;;23.03;;
2019;SDS011;1014;51.960;8.542;2023-11-21T14:58:18;23.83;;;22.20;;
2019;SDS011;1014;51.960;8.542;2023-11-21T15:00:51;23.90;;;22.40;;
2019;SDS011;1014;51.960;8.542;2023-11-21T15:03:22;22.23;;;20.90;;
2019;SDS011;1014;51.960;8.542;2023-11-21T15:06:06;24.05;;;22.45;;
2019;SDS011;1014;51.960;8.542;2023-11-21T15:08:51;23.87;;;22.30;;
2019;SDS011;1014;51.960;8.542;2023-11-21T15:11:22;22.17;;;20.83;;
2019;SDS011;1014;51.960;8.542;2023-11-21T15:13:55;23.40;;;21.90;;
2019;SDS011;1014;51.960;8.542;2023-11-21T15:16:22;24.85;;;23.25;;
2019;SDS011;1014;51.960;8.542;2023-11-21T15:18:51;23.73;;;22.05;;
2019;SDS011;1014;51.960;8.542;2023-11-21T15:21:18;23.58;;;22.15;;
2019;SDS011;1014;51.960;8.542;2023-11-21T15:23:47;23.60;;;22.00;;
2019;SDS011;1014;51.960;8.542;2023-11-21T15:26:16;23.55;;;21.60;;
2019;SDS011;1014;51.960;8.542;2023-11-21T15:28:43;24.52;;;22.58;;
2019;SDS011;1014;51.960;8.542;2023-11-21T15:31:10;24.73;;;23.03;;
2019;SDS011;1014;51.960;8.542;2023-11-21T15:33:37;24.23;;;22.77;;
2019;SDS011;1014;51.960;8.542;2023-11-21T15:36:04;23.75;;;22.15;;
2019;SDS011;1014;51.960;8.542;2023-11-21T15:38:35;23.98;;;22.38;;
2019;SDS011;1014;51.960;8.542;2023-11-21T15:41:02;23.55;;;21.95;;
2019;SDS011;1014;51.960;8.542;2023-11-21T15:43:31;23.30;;;21.60;;